Time;durP1;ratioP1;P1;durP2;ratioP2;P2;SDS_P1;SDS_P2;PMS_P1;PMS_P2;Temp;Humidity;BMP_temperature;BMP_pressure;BME280_temperature;BME280_humidity;BME280_pressure;Samples;Min_cycle;Max_cycle;Signal;HPM_P1;HPM_P2
2023/08/22 00:00:45;;;;;;;9.80;8.90;;;24.30;99.90;;;;;;5011138;28;20417;-75
2023/08/22 00:03:11;;;;;;;8.83;8.00;;;24.30;99.90;;;;;;5007847;28;20589;-75
2023/08/22 00:05:37;;;;;;;10.37;9.47;;;24.30;99.90;;;;;;5011270;28;20544;-76
2023/08/22 00:08:05;;;;;;;9.80;9.00;;;24.30;99.90;;;;;;5009586;28;20521;-76
2023/08/22 00:10:34;;;;;;;9.80;8.90;;;24.40;99.90;;;;;;5010194;28;20171;-75
2023/08/22 00:13:00;;;;;;;10.20;9.33;;;24.40;99.90;;;;;;5012099;28;20426;-75
2023/08/22 00:15:26;;;;;;;9.67;8.80;;;24.40;99.90;;;;;;5010638;28;20855;-76
2023/08/22 00:17:51;;;;;;;9.67;8.47;;;24.30;99.90;;;;;;5008682;28;20433;-76
2023/08/22 00:20:18;;;;;;;9.47;8.77;;;24.30;99.90;;;;;;5002009;28;20190;-74
2023/08/22 00:22:43;;;;;;;8.80;8.00;;;24.30;99.90;;;;;;5009110;28;20167;-74
2023/08/22 00:25:10;;;;;;;9.40;8.70;;;24.30;99.90;;;;;;5009627;28;20450;-76
2023/08/22 00:27:36;;;;;;;10.27;9.37;;;24.20;99.90;;;;;;5003219;28;20167;-75
2023/08/22 00:30:02;;;;;;;10.67;9.57;;;24.10;99.90;;;;;;5009207;28;20448;-76
2023/08/22 00:32:29;;;;;;;10.80;9.90;;;24.00;99.90;;;;;;5010426;28;20225;-75
2023/08/22 00:34:54;;;;;;;10.10;9.30;;;24.00;99.90;;;;;;5005439;28;20483;-75
2023/08/22 00:37:20;;;;;;;8.83;8.10;;;24.00;99.90;;;;;;5009759;28;20446;-75
2023/08/22 00:39:45;;;;;;;9.80;8.97;;;24.00;99.90;;;;;;5011092;28;20615;-74
2023/08/22 00:42:11;;;;;;;10.73;9.67;;;24.00;99.90;;;;;;5009424;28;20186;-74
2023/08/22 00:44:36;;;;;;;11.00;10.00;;;24.00;99.90;;;;;;5006425;28;20213;-75
2023/08/22 00:47:03;;;;;;;9.70;8.90;;;24.00;99.90;;;;;;5009650;28;20178;-75
2023/08/22 00:49:29;;;;;;;9.57;8.73;;;24.00;99.90;;;;;;5007994;28;20646;-75
2023/08/22 00:51:58;;;;;;;9.47;8.53;;;24.00;99.90;;;;;;5007972;28;20437;-75
2023/08/22 00:54:26;;;;;;;9.60;8.90;;;24.00;99.90;;;;;;5010522;28;20217;-75
2023/08/22 00:56:52;;;;;;;9.50;8.53;;;23.90;99.90;;;;;;5010239;28;20472;-74
2023/08/22 00:59:18;;;;;;;9.80;8.90;;;23.80;99.90;;;;;;5002013;28;20438;-75
2023/08/22 01:01:44;;;;;;;8.60;8.00;;;23.80;99.90;;;;;;5011091;28;20179;-75
2023/08/22 01:04:09;;;;;;;8.97;8.23;;;23.80;99.90;;;;;;5009850;28;20521;-75
2023/08/22 01:06:56;;;;;;;9.07;8.27;;;23.80;99.90;;;;;;5010742;28;20179;-74
2023/08/22 01:09:31;;;;;;;8.90;8.20;;;23.70;99.90;;;;;;5004787;28;20286;-75
2023/08/22 01:12:16;;;;;;;9.03;8.33;;;23.80;99.90;;;;;;5007742;28;20429;-75
2023/08/22 01:14:49;;;;;;;9.00;8.30;;;23.70;99.90;;;;;;5011786;28;20472;-74
2023/08/22 01:17:15;;;;;;;9.73;8.63;;;23.80;99.90;;;;;;5012659;28;20440;-75
2023/08/22 01:19:41;;;;;;;9.40;8.60;;;23.80;99.90;;;;;;5012871;28;20435;-75
2023/08/22 01:22:06;;;;;;;9.43;8.63;;;23.80;99.90;;;;;;5007515;28;20433;-75
2023/08/22 01:24:32;;;;;;;9.70;8.90;;;23.80;99.90;;;;;;5014199;28;20222;-75
2023/08/22 01:26:57;;;;;;;9.90;8.93;;;23.80;99.90;;;;;;5015321;28;20175;-75
2023/08/22 01:29:30;;;;;;;11.07;9.80;;;23.70;99.90;;;;;;5012860;28;20171;-75
2023/08/22 01:32:13;;;;;;;9.17;8.37;;;23.70;99.90;;;;;;5013406;28;20179;-75
2023/08/22 01:34:39;;;;;;;9.63;8.87;;;23.70;99.90;;;;;;5008222;28;20461;-76
2023/08/22 01:37:09;;;;;;;8.27;7.57;;;23.60;99.90;;;;;;5014878;28;20468;-75
2023/08/22 01:39:37;;;;;;;9.93;9.00;;;23.60;99.90;;;;;;5011512;28;20528;-75
2023/08/22 01:42:03;;;;;;;9.70;9.00;;;23.60;99.90;;;;;;5012933;28;20437;-75
2023/08/22 01:44:29;;;;;;;9.30;8.50;;;23.60;99.90;;;;;;5013692;28;20524;-75
2023/08/22 01:46:55;;;;;;;11.00;10.00;;;23.50;99.90;;;;;;5013773;28;20429;-75
2023/08/22 01:49:21;;;;;;;7.63;7.03;;;23.50;99.90;;;;;;5008704;28;20579;-75
2023/08/22 01:51:46;;;;;;;8.83;8.13;;;23.50;99.90;;;;;;5009954;28;20549;-74
2023/08/22 01:54:12;;;;;;;9.30;8.37;;;23.50;99.90;;;;;;4995539;28;20567;-75
2023/08/22 01:56:37;;;;;;;9.00;8.20;;;23.40;99.90;;;;;;5014510;28;20209;-75
2023/08/22 01:59:03;;;;;;;8.40;7.70;;;23.30;99.90;;;;;;5008633;28;20603;-75
2023/08/22 02:01:28;;;;;;;9.07;8.37;;;23.30;99.90;;;;;;5013588;28;20174;-75
2023/08/22 02:03:54;;;;;;;9.40;8.50;;;23.20;99.90;;;;;;5012598;28;20225;-75
2023/08/22 02:06:19;;;;;;;10.73;9.83;;;23.20;99.90;;;;;;4990404;28;20233;-75
2023/08/22 02:08:45;;;;;;;8.23;7.43;;;23.20;99.90;;;;;;5012357;28;20266;-75
2023/08/22 02:11:10;;;;;;;8.93;8.23;;;23.10;99.90;;;;;;5011677;28;20179;-75
2023/08/22 02:13:36;;;;;;;8.40;7.57;;;23.10;99.90;;;;;;5009636;28;20216;-75
2023/08/22 02:16:01;;;;;;;8.20;7.50;;;23.00;99.90;;;;;;5009948;28;20672;-75
2023/08/22 02:18:27;;;;;;;8.97;8.10;;;22.90;99.90;;;;;;5008350;28;20178;-74
2023/08/22 02:20:55;;;;;;;9.50;8.80;;;22.90;99.90;;;;;;5011221;28;20179;-75
2023/08/22 02:23:20;;;;;;;10.63;9.73;;;22.90;99.90;;;;;;5012098;28;20199;-75
2023/08/22 02:25:46;;;;;;;8.13;7.40;;;22.80;99.90;;;;;;5012476;28;20449;-75
2023/08/22 02:28:12;;;;;;;10.37;8.17;;;22.90;99.90;;;;;;5012558;28;20183;-74
2023/08/22 02:30:38;;;;;;;8.40;7.67;;;23.00;99.90;;;;;;5011180;28;20212;-75
2023/08/22 02:33:04;;;;;;;8.20;7.50;;;22.90;99.90;;;;;;5012027;28;20179;-75
2023/08/22 02:35:29;;;;;;;8.43;7.83;;;22.80;99.90;;;;;;5010743;28;20282;-75
2023/08/22 02:37:55;;;;;;;9.17;8.30;;;22.80;99.90;;;;;;5013810;28;20472;-74
2023/08/22 02:40:20;;;;;;;9.43;8.67;;;22.70;99.90;;;;;;5011152;28;20591;-75
2023/08/22 02:42:46;;;;;;;8.87;8.00;;;22.80;99.90;;;;;;5013787;28;20635;-75
2023/08/22 02:45:11;;;;;;;9.57;8.63;;;22.70;99.90;;;;;;5012622;28;20285;-75
2023/08/22 02:47:37;;;;;;;8.37;7.67;;;22.70;99.90;;;;;;5012922;28;20215;-75
2023/08/22 02:50:04;;;;;;;9.97;9.10;;;22.60;99.90;;;;;;5003427;28;20699;-74
2023/08/22 02:52:30;;;;;;;8.33;7.53;;;22.70;99.90;;;;;;5011041;28;20225;-74
2023/08/22 02:54:56;;;;;;;9.57;8.80;;;22.60;99.90;;;;;;5010747;28;20465;-75
2023/08/22 02:57:21;;;;;;;9.07;8.17;;;22.50;99.90;;;;;;5011942;28;20534;-75
2023/08/22 02:59:47;;;;;;;10.70;8.40;;;22.40;99.90;;;;;;5005919;28;20649;-74
2023/08/22 03:02:12;;;;;;;10.30;9.40;;;22.40;99.90;;;;;;5009209;28;20202;-74
2023/08/22 03:04:38;;;;;;;9.00;8.13;;;22.40;99.90;;;;;;5011295;28;20586;-74
2023/08/22 03:07:04;;;;;;;9.30;8.60;;;22.30;99.90;;;;;;5012441;28;20675;-75
2023/08/22 03:09:30;;;;;;;8.93;8.23;;;22.30;99.90;;;;;;5011984;28;20182;-75
2023/08/22 03:11:56;;;;;;;9.67;8.87;;;22.30;99.90;;;;;;5012417;28;20437;-74
2023/08/22 03:14:22;;;;;;;9.27;8.30;;;22.30;99.90;;;;;;5010702;28;21005;-74
2023/08/22 03:16:47;;;;;;;9.17;8.37;;;22.30;99.90;;;;;;5009430;28;20186;-74
2023/08/22 03:19:13;;;;;;;9.90;8.67;;;22.30;99.90;;;;;;5011459;28;20189;-74
2023/08/22 03:21:38;;;;;;;9.83;8.60;;;22.40;99.90;;;;;;4992920;28;20265;-74
2023/08/22 03:24:04;;;;;;;9.33;8.63;;;22.30;99.90;;;;;;5010883;28;20215;-74
2023/08/22 03:26:30;;;;;;;8.60;8.00;;;22.40;99.90;;;;;;5011168;28;20175;-74
2023/08/22 03:28:56;;;;;;;10.03;9.13;;;22.40;99.90;;;;;;5012246;28;20417;-74
2023/08/22 03:31:26;;;;;;;9.03;8.23;;;22.40;99.90;;;;;;5012969;28;20181;-74
2023/08/22 03:33:52;;;;;;;10.03;7.97;;;22.40;99.90;;;;;;5008879;28;20194;-74
2023/08/22 03:36:17;;;;;;;9.80;8.80;;;22.40;99.90;;;;;;5010083;28;20767;-75
2023/08/22 03:38:43;;;;;;;9.97;9.17;;;22.40;99.90;;;;;;5009755;28;20186;-74
2023/08/22 03:41:08;;;;;;;8.70;8.00;;;22.30;99.90;;;;;;5011665;28;20175;-74
2023/08/22 03:43:34;;;;;;;9.80;9.10;;;22.30;99.90;;;;;;5010913;28;20198;-74
2023/08/22 03:46:00;;;;;;;9.77;8.97;;;22.20;99.90;;;;;;5012764;28;20659;-74
2023/08/22 03:48:25;;;;;;;9.97;9.13;;;22.20;99.90;;;;;;5010992;28;20266;-74
2023/08/22 03:50:51;;;;;;;9.10;8.40;;;22.20;99.90;;;;;;5011776;28;20167;-74
2023/08/22 03:53:16;;;;;;;9.47;8.67;;;22.20;99.90;;;;;;5007225;28;20547;-74
2023/08/22 03:55:43;;;;;;;9.20;8.50;;;22.20;99.90;;;;;;5009686;28;20550;-74
2023/08/22 03:58:10;;;;;;;9.93;9.03;;;22.20;99.90;;;;;;5010021;28;20186;-74
2023/08/22 04:00:36;;;;;;;9.80;8.90;;;22.10;99.90;;;;;;5011101;28;20453;-75
2023/08/22 04:03:01;;;;;;;10.20;9.13;;;22.00;99.90;;;;;;5011196;28;20421;-74
2023/08/22 04:05:27;;;;;;;9.20;8.30;;;21.90;99.90;;;;;;5012290;28;20217;-74
2023/08/22 04:07:53;;;;;;;9.97;9.17;;;21.90;99.90;;;;;;5012352;28;20173;-74
2023/08/22 04:10:19;;;;;;;8.67;8.00;;;21.80;99.90;;;;;;5008524;28;20258;-74
2023/08/22 04:12:45;;;;;;;9.60;8.70;;;21.80;99.90;;;;;;5008847;28;20175;-74
2023/08/22 04:15:12;;;;;;;9.77;9.07;;;21.80;99.90;;;;;;5010216;28;20552;-74
2023/08/22 04:17:41;;;;;;;9.07;8.37;;;21.90;99.90;;;;;;5010281;28;20445;-74
2023/08/22 04:20:10;;;;;;;9.70;8.87;;;21.80;99.90;;;;;;5010392;28;20521;-74
2023/08/22 04:22:39;;;;;;;9.40;8.00;;;21.90;99.90;;;;;;5003764;28;20954;-74
2023/08/22 04:25:06;;;;;;;8.43;7.50;;;22.00;99.90;;;;;;5010994;28;21060;-75
2023/08/22 04:27:31;;;;;;;10.47;8.13;;;22.10;99.90;;;;;;5010241;28;20434;-74
2023/08/22 04:29:57;;;;;;;10.33;9.17;;;22.20;99.90;;;;;;5008240;28;20955;-74
2023/08/22 04:32:22;;;;;;;9.60;8.80;;;22.10;99.90;;;;;;5008746;28;20186;-75
2023/08/22 04:34:48;;;;;;;9.17;8.37;;;22.00;99.90;;;;;;5011844;28;20187;-74
2023/08/22 04:37:13;;;;;;;8.23;7.53;;;21.90;99.90;;;;;;5008934;28;20187;-74
2023/08/22 04:39:39;;;;;;;9.10;7.97;;;21.80;99.90;;;;;;5009636;28;20182;-74
2023/08/22 04:42:05;;;;;;;8.00;7.40;;;21.80;99.90;;;;;;5011856;28;20202;-74
2023/08/22 04:44:30;;;;;;;9.77;6.97;;;21.80;99.90;;;;;;5010137;28;20218;-74
2023/08/22 04:46:56;;;;;;;8.90;8.20;;;21.80;99.90;;;;;;5011848;28;20286;-74
2023/08/22 04:49:23;;;;;;;9.00;8.20;;;21.90;99.90;;;;;;5007092;28;20188;-74
2023/08/22 04:51:49;;;;;;;7.70;7.10;;;21.90;99.90;;;;;;5015435;28;20421;-74
2023/08/22 04:54:14;;;;;;;12.50;8.70;;;22.00;99.90;;;;;;5015792;28;20997;-74
2023/08/22 04:56:40;;;;;;;9.13;8.33;;;21.90;99.90;;;;;;5013746;28;21016;-74
2023/08/22 04:59:06;;;;;;;10.03;9.20;;;22.00;99.90;;;;;;5011627;28;20185;-74
2023/08/22 05:01:31;;;;;;;13.20;12.00;;;22.00;99.90;;;;;;5012030;28;20186;-74
2023/08/22 05:03:57;;;;;;;8.80;7.97;;;22.20;99.90;;;;;;5013773;28;20293;-74
2023/08/22 05:06:22;;;;;;;10.30;9.40;;;22.30;99.90;;;;;;5010061;28;20641;-72
2023/08/22 05:08:48;;;;;;;9.63;8.73;;;22.40;99.90;;;;;;5007345;28;20183;-74
2023/08/22 05:11:13;;;;;;;9.00;8.20;;;22.50;99.90;;;;;;5015522;28;20198;-74
2023/08/22 05:13:39;;;;;;;9.80;8.80;;;22.50;99.90;;;;;;5012351;28;20210;-75
2023/08/22 05:16:04;;;;;;;9.17;8.37;;;22.50;99.90;;;;;;5012830;28;20201;-70
2023/08/22 05:18:30;;;;;;;9.30;8.00;;;22.70;99.90;;;;;;5011469;28;20182;-69
2023/08/22 05:20:55;;;;;;;9.83;8.83;;;22.80;99.90;;;;;;5011322;28;20270;-70
2023/08/22 05:23:21;;;;;;;8.43;7.67;;;22.90;99.90;;;;;;5015171;28;20684;-70
2023/08/22 05:25:46;;;;;;;8.60;8.00;;;23.00;99.90;;;;;;5015480;28;20640;-70
2023/08/22 05:28:12;;;;;;;9.17;8.27;;;23.10;99.90;;;;;;5014899;28;20261;-73
2023/08/22 05:30:38;;;;;;;9.33;8.27;;;23.20;99.90;;;;;;5013983;28;20176;-71
2023/08/22 05:33:04;;;;;;;10.97;9.83;;;23.30;99.90;;;;;;5015123;28;20521;-70
2023/08/22 05:35:30;;;;;;;9.13;8.30;;;23.40;99.90;;;;;;5015088;28;20198;-71
2023/08/22 05:37:55;;;;;;;7.60;7.00;;;23.50;99.90;;;;;;5015171;28;20418;-70
2023/08/22 05:40:21;;;;;;;8.07;7.47;;;23.50;99.90;;;;;;5014320;28;20175;-70
2023/08/22 05:42:46;;;;;;;8.33;7.60;;;23.60;99.90;;;;;;5015063;28;20175;-72
2023/08/22 05:45:12;;;;;;;9.00;7.13;;;23.90;99.90;;;;;;5013272;28;20774;-69
2023/08/22 05:47:38;;;;;;;9.43;8.63;;;24.10;99.90;;;;;;5014743;28;20206;-70
2023/08/22 05:50:06;;;;;;;7.87;7.20;;;24.30;99.90;;;;;;5013533;28;20187;-72
2023/08/22 05:52:31;;;;;;;7.90;7.20;;;24.50;99.90;;;;;;5014734;28;20294;-71
2023/08/22 05:54:57;;;;;;;8.90;8.00;;;24.70;99.90;;;;;;5014721;28;20516;-69
2023/08/22 05:57:23;;;;;;;8.10;7.40;;;24.80;99.90;;;;;;5014810;28;20187;-70
2023/08/22 05:59:51;;;;;;;8.20;7.33;;;25.00;99.90;;;;;;5013133;28;20190;-71
2023/08/22 06:02:16;;;;;;;9.33;8.50;;;25.20;99.90;;;;;;5014528;28;20698;-71
2023/08/22 06:04:44;;;;;;;8.70;7.90;;;25.40;99.90;;;;;;5014468;28;20457;-70
2023/08/22 06:07:10;;;;;;;10.10;8.10;;;25.60;99.90;;;;;;5014580;28;20652;-70
2023/08/22 06:09:35;;;;;;;8.03;7.27;;;25.80;99.90;;;;;;5013885;28;20426;-70
2023/08/22 06:12:01;;;;;;;8.60;7.90;;;25.90;99.90;;;;;;5013165;28;20254;-70
2023/08/22 06:14:28;;;;;;;7.90;7.30;;;26.10;99.90;;;;;;5014102;28;20281;-70
2023/08/22 06:16:53;;;;;;;11.10;8.17;;;26.20;99.90;;;;;;5014308;28;20593;-72
2023/08/22 06:19:19;;;;;;;8.97;8.07;;;26.30;99.90;;;;;;5013712;28;20509;-70
2023/08/22 06:21:45;;;;;;;10.67;8.10;;;26.50;99.90;;;;;;5014312;28;20179;-70
2023/08/22 06:24:11;;;;;;;8.87;7.60;;;26.70;99.90;;;;;;5014152;28;20218;-71
2023/08/22 06:26:36;;;;;;;8.37;7.13;;;26.90;99.90;;;;;;5013320;28;20175;-70
2023/08/22 06:29:02;;;;;;;10.47;8.00;;;27.10;99.90;;;;;;5013261;28;20420;-73
2023/08/22 06:31:28;;;;;;;10.53;6.70;;;27.20;99.90;;;;;;5011608;28;20308;-73
2023/08/22 06:33:53;;;;;;;7.80;7.10;;;27.30;99.90;;;;;;5013974;28;20194;-72
2023/08/22 06:36:19;;;;;;;9.53;7.47;;;27.50;99.90;;;;;;5013932;28;20171;-73
2023/08/22 06:38:44;;;;;;;7.40;6.70;;;27.70;99.90;;;;;;5013305;28;20262;-73
2023/08/22 06:41:10;;;;;;;8.00;6.60;;;27.90;99.90;;;;;;5013776;28;20181;-72
2023/08/22 06:43:35;;;;;;;8.93;8.10;;;28.00;99.90;;;;;;5012657;28;20220;-73
2023/08/22 06:46:01;;;;;;;7.23;6.63;;;28.20;99.90;;;;;;5013807;28;20601;-73
2023/08/22 06:48:27;;;;;;;11.23;8.10;;;28.30;99.90;;;;;;5004006;28;20170;-73
2023/08/22 06:50:53;;;;;;;7.20;6.50;;;28.30;99.90;;;;;;5008847;28;20425;-73
2023/08/22 06:53:19;;;;;;;7.47;6.80;;;28.40;99.90;;;;;;5013826;28;20459;-73
2023/08/22 06:55:48;;;;;;;8.97;6.80;;;28.30;99.90;;;;;;5013763;28;20569;-73
2023/08/22 06:58:14;;;;;;;7.20;6.57;;;28.20;99.90;;;;;;5011054;28;20457;-73
2023/08/22 07:00:40;;;;;;;9.73;6.60;;;28.20;99.90;;;;;;5012972;28;20528;-73
2023/08/22 07:03:06;;;;;;;9.40;6.70;;;28.30;99.90;;;;;;5013303;28;20183;-73
2023/08/22 07:05:34;;;;;;;8.00;7.20;;;28.40;99.90;;;;;;5013460;28;20214;-73
2023/08/22 07:08:00;;;;;;;10.40;6.87;;;28.70;99.90;;;;;;5013324;28;20935;-73
2023/08/22 07:10:26;;;;;;;7.77;7.00;;;28.80;99.90;;;;;;5012745;28;20471;-73
2023/08/22 07:12:51;;;;;;;6.93;6.33;;;29.20;99.90;;;;;;5012028;28;20179;-73
2023/08/22 07:15:17;;;;;;;8.00;7.30;;;29.50;99.90;;;;;;5012967;28;20236;-73
2023/08/22 07:17:42;;;;;;;7.90;7.20;;;29.80;99.90;;;;;;5013293;28;20170;-73
2023/08/22 07:20:08;;;;;;;10.37;6.10;;;30.10;99.90;;;;;;5012802;28;20609;-73
2023/08/22 07:22:34;;;;;;;8.83;6.63;;;30.20;99.90;;;;;;5013140;28;20245;-73
2023/08/22 07:24:59;;;;;;;7.90;7.17;;;30.50;99.90;;;;;;5013005;28;20457;-73
2023/08/22 07:27:25;;;;;;;8.77;6.47;;;30.80;99.90;;;;;;5013121;28;20661;-73
2023/08/22 07:29:51;;;;;;;11.40;6.70;;;30.90;99.90;;;;;;5011743;28;20261;-74
2023/08/22 07:32:20;;;;;;;7.73;6.77;;;31.10;99.90;;;;;;5012945;28;20505;-74
2023/08/22 07:34:46;;;;;;;11.87;7.37;;;31.10;99.90;;;;;;5012882;28;20226;-74
2023/08/22 07:37:13;;;;;;;7.00;6.43;;;31.20;99.90;;;;;;5011551;28;20458;-74
2023/08/22 07:39:38;;;;;;;7.67;6.17;;;31.40;99.90;;;;;;5012230;28;20548;-74
2023/08/22 07:42:04;;;;;;;6.00;5.37;;;31.20;99.90;;;;;;5012915;28;20508;-74
2023/08/22 07:44:30;;;;;;;6.70;6.10;;;31.10;99.90;;;;;;5012585;28;20768;-74
2023/08/22 07:46:56;;;;;;;6.23;5.63;;;31.40;99.90;;;;;;5011082;28;20175;-72
2023/08/22 07:49:21;;;;;;;6.30;5.70;;;31.70;99.90;;;;;;5007350;28;20207;-74
2023/08/22 07:51:47;;;;;;;7.80;6.20;;;32.00;99.90;;;;;;5003273;28;20199;-74
2023/08/22 07:54:13;;;;;;;6.80;6.37;;;32.20;99.90;;;;;;5001315;28;20262;-74
2023/08/22 07:56:38;;;;;;;7.00;6.00;;;32.40;99.90;;;;;;5006922;28;20526;-73
2023/08/22 07:59:04;;;;;;;6.50;6.07;;;32.60;99.90;;;;;;5011845;28;20787;-74
2023/08/22 08:01:29;;;;;;;6.57;6.00;;;32.80;99.90;;;;;;5010968;28;20175;-73
2023/08/22 08:03:55;;;;;;;9.30;6.30;;;32.70;99.90;;;;;;5012301;28;20203;-74
2023/08/22 08:06:21;;;;;;;6.73;5.43;;;33.00;99.90;;;;;;5012465;28;20203;-73
2023/08/22 08:08:47;;;;;;;6.33;5.73;;;33.20;99.90;;;;;;5011686;28;20175;-74
2023/08/22 08:11:12;;;;;;;7.27;5.90;;;33.60;99.90;;;;;;5012488;28;20413;-73
2023/08/22 08:13:38;;;;;;;5.90;5.33;;;33.70;99.90;;;;;;5012306;28;20592;-74
2023/08/22 08:16:05;;;;;;;5.83;5.40;;;33.90;99.90;;;;;;5011470;28;20190;-73
2023/08/22 08:18:31;;;;;;;6.20;5.70;;;34.10;99.70;;;;;;5011604;28;20178;-74
2023/08/22 08:20:56;;;;;;;6.63;6.10;;;34.10;99.40;;;;;;5012318;28;20788;-71
2023/08/22 08:23:22;;;;;;;9.27;6.60;;;34.00;99.10;;;;;;5011950;28;20341;-71
2023/08/22 08:25:47;;;;;;;6.37;5.77;;;34.00;98.80;;;;;;5011852;28;20169;-72
2023/08/22 08:28:13;;;;;;;7.53;6.27;;;34.20;98.70;;;;;;5011461;28;20182;-71
2023/08/22 08:30:39;;;;;;;7.07;6.40;;;34.50;98.50;;;;;;5011337;28;20174;-73
2023/08/22 08:33:06;;;;;;;8.10;7.43;;;34.60;97.50;;;;;;5011765;28;20919;-71
2023/08/22 08:35:32;;;;;;;8.20;7.00;;;34.50;97.30;;;;;;5011219;28;20615;-72
2023/08/22 08:37:59;;;;;;;6.90;6.40;;;34.70;96.90;;;;;;5011906;28;20453;-74
2023/08/22 08:40:33;;;;;;;6.63;5.90;;;34.90;96.20;;;;;;5011483;28;20518;-75
2023/08/22 08:42:59;;;;;;;7.23;6.73;;;35.10;95.70;;;;;;5012092;28;20418;-75
2023/08/22 08:45:26;;;;;;;6.90;6.30;;;35.20;95.70;;;;;;5011814;28;20489;-73
2023/08/22 08:47:52;;;;;;;7.40;6.90;;;35.50;94.60;;;;;;5010192;28;20787;-74
2023/08/22 08:50:17;;;;;;;6.90;6.30;;;35.40;94.20;;;;;;5010409;28;20448;-70
2023/08/22 08:52:45;;;;;;;6.97;5.97;;;35.50;94.10;;;;;;5011808;28;20257;-72
2023/08/22 08:55:11;;;;;;;7.37;6.77;;;35.60;93.50;;;;;;5011902;28;20581;-72
2023/08/22 08:57:36;;;;;;;6.63;6.20;;;35.30;93.80;;;;;;5011793;28;20513;-72
2023/08/22 09:00:02;;;;;;;6.90;6.30;;;35.80;93.70;;;;;;5011143;28;20428;-72
2023/08/22 09:02:28;;;;;;;5.83;5.43;;;36.20;92.90;;;;;;5011843;28;20222;-72
2023/08/22 09:04:54;;;;;;;6.20;5.70;;;36.20;91.10;;;;;;5010769;28;20457;-71
2023/08/22 09:07:20;;;;;;;5.90;5.50;;;36.40;90.50;;;;;;5011832;28;20167;-71
2023/08/22 09:09:45;;;;;;;7.33;5.73;;;36.60;90.20;;;;;;5011145;28;20171;-71
2023/08/22 09:12:13;;;;;;;7.60;6.40;;;36.70;89.50;;;;;;5011693;28;20171;-73
2023/08/22 09:14:46;;;;;;;6.90;6.30;;;37.20;88.50;;;;;;5011557;28;20238;-72
2023/08/22 09:17:15;;;;;;;6.70;6.10;;;37.40;87.40;;;;;;5011730;28;20448;-73
2023/08/22 09:19:41;;;;;;;6.90;6.30;;;37.60;86.50;;;;;;5011013;28;20465;-72
2023/08/22 09:22:07;;;;;;;6.80;5.83;;;37.90;85.20;;;;;;5010032;28;20489;-72
2023/08/22 09:24:34;;;;;;;6.63;5.80;;;38.20;83.30;;;;;;5010514;28;20465;-72
2023/08/22 09:27:01;;;;;;;5.30;4.80;;;38.60;79.90;;;;;;5011371;28;20171;-76
2023/08/22 09:29:33;;;;;;;7.47;5.80;;;38.80;77.30;;;;;;5009948;28;20421;-71
2023/08/22 09:32:01;;;;;;;7.73;6.50;;;39.10;76.10;;;;;;5011611;28;20425;-73
2023/08/22 09:34:27;;;;;;;5.73;5.20;;;38.60;75.50;;;;;;5010536;28;20485;-73
2023/08/22 09:36:54;;;;;;;5.27;4.80;;;39.10;74.90;;;;;;5014260;28;20430;-72
2023/08/22 09:39:21;;;;;;;7.30;6.80;;;39.70;72.50;;;;;;5014548;28;20830;-73
2023/08/22 09:41:53;;;;;;;6.07;5.67;;;40.10;71.50;;;;;;5015156;28;20425;-72
2023/08/22 09:44:23;;;;;;;6.30;5.73;;;40.10;69.80;;;;;;5014903;28;20465;-73
2023/08/22 09:46:51;;;;;;;6.13;5.73;;;40.80;68.50;;;;;;5013789;28;20500;-72
2023/08/22 09:49:17;;;;;;;5.63;5.23;;;41.40;65.10;;;;;;5013568;28;20460;-73
2023/08/22 09:51:46;;;;;;;6.37;5.83;;;41.90;63.00;;;;;;5014849;28;21109;-72
2023/08/22 09:54:13;;;;;;;5.33;4.83;;;42.30;61.50;;;;;;5014798;28;20492;-73
2023/08/22 09:56:39;;;;;;;6.43;5.17;;;42.40;60.20;;;;;;5015022;28;20421;-73
2023/08/22 09:59:05;;;;;;;4.93;4.63;;;42.40;59.70;;;;;;5014093;28;20524;-74
2023/08/22 10:01:34;;;;;;;5.40;5.10;;;42.30;59.20;;;;;;5012907;28;21010;-73
2023/08/22 10:04:03;;;;;;;6.37;5.77;;;42.70;58.20;;;;;;5013871;28;20902;-73
2023/08/22 10:06:30;;;;;;;5.50;5.10;;;42.60;56.80;;;;;;5014525;28;20496;-72
2023/08/22 10:08:57;;;;;;;7.40;4.90;;;43.70;56.20;;;;;;5013876;28;20418;-73
2023/08/22 10:11:25;;;;;;;5.80;5.20;;;43.90;55.30;;;;;;5014568;28;20418;-73
2023/08/22 10:13:52;;;;;;;5.80;5.37;;;43.40;55.80;;;;;;5014209;28;20990;-74
2023/08/22 10:16:18;;;;;;;5.57;5.17;;;43.90;54.70;;;;;;5013557;28;20508;-73
2023/08/22 10:18:44;;;;;;;7.00;5.37;;;44.70;54.20;;;;;;5013642;28;20514;-72
2023/08/22 10:21:10;;;;;;;4.90;4.50;;;45.60;52.90;;;;;;5014370;28;20982;-73
2023/08/22 10:23:44;;;;;;;5.53;4.83;;;45.80;51.60;;;;;;5014317;28;20197;-73
2023/08/22 10:26:10;;;;;;;5.10;4.80;;;45.40;51.30;;;;;;5014254;28;20175;-73
2023/08/22 10:28:42;;;;;;;6.07;5.17;;;45.40;51.10;;;;;;5013462;28;20491;-73
2023/08/22 10:31:07;;;;;;;5.40;5.10;;;44.50;50.30;;;;;;5013664;28;20178;-73
2023/08/22 10:33:33;;;;;;;5.43;4.93;;;44.50;50.60;;;;;;4994377;28;20870;-72
2023/08/22 10:36:02;;;;;;;5.67;5.17;;;44.20;50.70;;;;;;4994587;28;20224;-73
2023/08/22 10:38:28;;;;;;;5.80;5.30;;;44.90;51.80;;;;;;4993749;28;20172;-73
2023/08/22 10:40:54;;;;;;;6.30;5.70;;;45.20;51.10;;;;;;4994340;28;20426;-71
2023/08/22 10:43:21;;;;;;;6.00;5.60;;;45.10;50.60;;;;;;4994321;28;20164;-71
2023/08/22 10:45:49;;;;;;;5.97;5.50;;;45.50;50.40;;;;;;5001999;28;20629;-70
2023/08/22 10:48:17;;;;;;;5.20;4.60;;;46.00;50.00;;;;;;5009195;28;20433;-72
2023/08/22 10:50:44;;;;;;;5.90;5.30;;;47.20;48.90;;;;;;5008227;28;20417;-71
2023/08/22 10:53:21;;;;;;;6.20;5.70;;;47.10;48.40;;;;;;5013685;28;20429;-70
2023/08/22 10:55:47;;;;;;;6.70;6.00;;;46.70;48.80;;;;;;5013261;28;20414;-71
2023/08/22 10:58:32;;;;;;;6.17;5.73;;;46.60;47.90;;;;;;5012967;28;20464;-71
2023/08/22 11:00:58;;;;;;;6.53;6.03;;;45.00;48.70;;;;;;5012564;28;20425;-71
2023/08/22 11:03:24;;;;;;;5.83;5.17;;;45.10;49.40;;;;;;5003419;28;20429;-71
2023/08/22 11:05:50;;;;;;;6.33;5.83;;;46.10;48.50;;;;;;5012445;28;20186;-71
2023/08/22 11:08:16;;;;;;;5.63;5.23;;;46.80;47.70;;;;;;5012525;28;20210;-71
2023/08/22 11:10:43;;;;;;;6.30;5.70;;;45.90;47.30;;;;;;5013261;28;20570;-71
2023/08/22 11:13:09;;;;;;;6.90;5.93;;;44.40;48.80;;;;;;5012843;28;20504;-70
2023/08/22 11:15:35;;;;;;;7.20;6.20;;;43.40;49.50;;;;;;5013632;28;20493;-71
2023/08/22 11:18:04;;;;;;;5.90;5.50;;;42.70;50.70;;;;;;5010729;28;20183;-71
2023/08/22 11:20:31;;;;;;;5.80;5.40;;;41.80;50.90;;;;;;5011576;28;20714;-71
2023/08/22 11:22:57;;;;;;;6.90;5.77;;;41.10;51.80;;;;;;5012977;28;20521;-70
2023/08/22 11:25:24;;;;;;;7.03;6.40;;;40.30;52.80;;;;;;5012612;28;20528;-70
2023/08/22 11:27:50;;;;;;;5.50;5.20;;;40.40;53.30;;;;;;5013029;28;20167;-71
2023/08/22 11:30:18;;;;;;;6.97;5.77;;;41.00;52.80;;;;;;5010776;28;20430;-71
2023/08/22 11:32:44;;;;;;;7.20;5.90;;;41.90;51.10;;;;;;5009569;28;20181;-71
2023/08/22 11:35:10;;;;;;;7.57;5.87;;;42.90;50.90;;;;;;5012644;28;20832;-70
2023/08/22 11:37:39;;;;;;;6.33;5.83;;;42.00;51.40;;;;;;5012873;28;20190;-70
2023/08/22 11:40:09;;;;;;;5.67;5.27;;;40.70;52.70;;;;;;5011600;28;20468;-70
2023/08/22 11:42:36;;;;;;;6.10;5.60;;;40.40;53.80;;;;;;5013015;28;20430;-70
2023/08/22 11:45:02;;;;;;;6.67;6.27;;;39.60;54.20;;;;;;5011489;28;20469;-70
2023/08/22 11:47:46;;;;;;;6.30;5.70;;;40.10;54.10;;;;;;5008725;28;20885;-70
2023/08/22 11:50:15;;;;;;;6.00;5.60;;;41.60;53.10;;;;;;5010999;28;20225;-71
2023/08/22 11:52:46;;;;;;;5.50;5.10;;;42.70;50.70;;;;;;5012716;28;20453;-71
2023/08/22 11:55:15;;;;;;;6.07;5.47;;;43.80;49.90;;;;;;5012667;28;20466;-71
2023/08/22 11:57:43;;;;;;;6.13;5.63;;;44.60;49.10;;;;;;5012671;28;20444;-71
2023/08/22 12:00:13;;;;;;;5.67;5.20;;;44.40;48.90;;;;;;5011629;28;20422;-71
2023/08/22 12:02:43;;;;;;;5.90;5.30;;;43.90;48.60;;;;;;5010940;28;20429;-71
2023/08/22 12:05:34;;;;;;;6.00;5.50;;;44.00;48.60;;;;;;5012486;28;20445;-70
2023/08/22 12:08:16;;;;;;;5.43;5.03;;;43.60;49.00;;;;;;5012499;28;20448;-70
2023/08/22 12:10:45;;;;;;;6.37;5.73;;;42.30;49.90;;;;;;5012415;28;20437;-71
2023/08/22 12:13:13;;;;;;;5.77;5.37;;;42.80;50.70;;;;;;5012279;28;20418;-71
2023/08/22 12:15:40;;;;;;;5.33;4.97;;;44.30;49.40;;;;;;5011290;28;20469;-70
2023/08/22 12:18:06;;;;;;;6.13;5.63;;;44.10;48.00;;;;;;5012239;28;20425;-70
2023/08/22 12:20:33;;;;;;;6.27;5.67;;;43.40;49.70;;;;;;5011841;28;20425;-70
2023/08/22 12:22:58;;;;;;;6.83;6.20;;;44.40;48.40;;;;;;5012312;28;20464;-71
2023/08/22 12:25:24;;;;;;;6.80;6.30;;;46.20;47.10;;;;;;5012190;28;20473;-71
2023/08/22 12:27:49;;;;;;;6.87;6.27;;;48.00;46.30;;;;;;5012193;28;20178;-71
2023/08/22 12:30:15;;;;;;;5.37;4.97;;;49.80;46.00;;;;;;5011644;28;20189;-70
2023/08/22 12:32:44;;;;;;;6.73;6.33;;;50.70;45.30;;;;;;5010822;28;20186;-71
2023/08/22 12:35:10;;;;;;;5.90;5.43;;;47.40;45.60;;;;;;5011982;28;20202;-71
2023/08/22 12:37:40;;;;;;;6.40;6.00;;;44.90;47.30;;;;;;5012127;28;20410;-71
2023/08/22 12:40:10;;;;;;;5.67;5.20;;;46.40;47.70;;;;;;5011293;28;20178;-71
2023/08/22 12:42:36;;;;;;;6.40;5.90;;;47.70;46.60;;;;;;5012044;28;21013;-71